Time;durP1;ratioP1;P1;durP2;ratioP2;P2;SDS_P1;SDS_P2;PMS_P1;PMS_P2;Temp;Humidity;BMP_temperature;BMP_pressure;BME280_temperature;BME280_humidity;BME280_pressure;Samples;Min_cycle;Max_cycle;Signal;HPM_P1;HPM_P2
2024/03/11 00:04:06;;;;;;;39.53;32.28;;;;;;;10.38;100.00;101714.16;10494429;28;20040;-79
2024/03/11 00:09:32;;;;;;;9.68;8.93;;;;;;;10.37;100.00;101713.28;10480887;28;20045;-79
2024/03/11 00:14:55;;;;;;;36.08;32.75;;;;;;;10.52;100.00;101714.59;10483772;28;20079;-81
2024/03/11 00:20:20;;;;;;;9.60;8.60;;;;;;;10.47;100.00;101713.56;10481655;28;20451;-79
2024/03/11 00:25:44;;;;;;;21.67;16.55;;;;;;;10.56;100.00;101709.50;10508153;28;20041;-80
2024/03/11 00:31:11;;;;;;;12.80;11.45;;;;;;;10.54;100.00;101705.91;10481213;28;20098;-81
2024/03/11 00:36:36;;;;;;;13.13;9.20;;;;;;;10.53;100.00;101706.75;10480539;28;20052;-80
2024/03/11 00:42:03;;;;;;;10.52;8.15;;;;;;;10.53;100.00;101704.09;10500130;28;20044;-79
2024/03/11 00:47:27;;;;;;;12.52;9.60;;;;;;;10.49;100.00;101696.94;10481259;28;20048;-80
2024/03/11 00:52:51;;;;;;;29.52;27.02;;;;;;;10.46;100.00;101709.13;10520617;28;20045;-79
2024/03/11 00:58:17;;;;;;;11.85;10.95;;;;;;;10.37;100.00;101702.72;10480261;28;20633;-79
2024/03/11 01:03:40;;;;;;;59.10;41.28;;;;;;;10.33;100.00;101706.13;10493307;28;20063;-80
2024/03/11 01:09:02;;;;;;;12.10;10.18;;;;;;;10.06;100.00;101713.09;10493108;28;20062;-80
2024/03/11 01:14:26;;;;;;;19.67;17.98;;;;;;;10.21;100.00;101711.00;10479317;28;20431;-80
2024/03/11 01:19:50;;;;;;;12.77;9.98;;;;;;;10.18;100.00;101713.53;10478535;28;20055;-79
2024/03/11 01:25:13;;;;;;;10.00;7.40;;;;;;;10.28;100.00;101706.81;10489947;28;20055;-80
2024/03/11 01:30:37;;;;;;;12.02;9.43;;;;;;;10.46;100.00;101707.41;10503804;28;20065;-79
2024/03/11 01:36:01;;;;;;;11.07;9.07;;;;;;;10.49;100.00;101706.59;10479375;28;20067;-79
2024/03/11 01:41:24;;;;;;;13.40;10.27;;;;;;;10.50;100.00;101692.56;10492107;28;20064;-79
2024/03/11 01:46:48;;;;;;;10.15;7.47;;;;;;;10.41;100.00;101692.28;10492338;28;20131;-79
2024/03/11 01:52:16;;;;;;;12.80;10.52;;;;;;;10.62;100.00;101693.84;10491795;28;20136;-80
2024/03/11 01:57:40;;;;;;;8.00;6.47;;;;;;;10.44;100.00;101710.81;10478208;28;20421;-79
2024/03/11 02:03:06;;;;;;;8.35;6.60;;;;;;;10.72;100.00;101705.56;10477107;28;20056;-79
2024/03/11 02:08:30;;;;;;;9.15;6.68;;;;;;;10.95;100.00;101715.06;10477997;28;20044;-80
2024/03/11 02:13:53;;;;;;;7.38;6.10;;;;;;;11.06;100.00;101713.63;10491437;28;20044;-80
2024/03/11 02:19:21;;;;;;;5.82;5.30;;;;;;;11.52;100.00;101717.56;10504545;28;20055;-78
2024/03/11 02:24:45;;;;;;;6.28;5.68;;;;;;;11.76;100.00;101720.88;10494694;28;20053;-80
2024/03/11 02:30:09;;;;;;;6.40;5.80;;;;;;;11.57;100.00;101713.28;10517244;28;20431;-78
2024/03/11 02:35:31;;;;;;;9.30;6.10;;;;;;;11.91;100.00;101705.41;10492970;28;20106;-79
2024/03/11 02:40:56;;;;;;;12.02;6.32;;;;;;;11.88;100.00;101705.31;10502990;28;20056;-80
2024/03/11 02:46:20;;;;;;;6.68;5.55;;;;;;;11.73;100.00;101704.91;10505019;28;20518;-80
2024/03/11 02:51:45;;;;;;;7.68;5.65;;;;;;;11.90;100.00;101705.34;10490307;28;20044;-80
2024/03/11 02:57:13;;;;;;;7.00;5.90;;;;;;;11.75;100.00;101704.97;10476354;28;20059;-79
2024/03/11 03:02:38;;;;;;;7.53;5.28;;;;;;;11.91;100.00;101705.41;10515904;28;20055;-80
2024/03/11 03:08:01;;;;;;;7.93;6.05;;;;;;;11.81;100.00;101707.78;10490448;28;20067;-79
2024/03/11 03:13:29;;;;;;;7.75;6.53;;;;;;;11.62;100.00;101708.13;10517021;28;20087;-79
2024/03/11 03:18:54;;;;;;;;;;;;;;;11.65;100.00;101716.13;10518246;27;20055;-79
2024/03/11 03:24:17;;;;;;;8.52;5.90;;;;;;;11.74;100.00;101706.72;10488232;28;19920;-80
2024/03/11 03:29:42;;;;;;;7.70;5.75;;;;;;;11.78;100.00;101708.59;10497363;28;20401;-79
2024/03/11 03:35:09;;;;;;;12.10;7.05;;;;;;;11.69;100.00;101718.88;10517344;28;20091;-79
2024/03/11 03:40:32;;;;;;;6.53;5.82;;;;;;;11.57;100.00;101711.53;10488980;28;20044;-79
2024/03/11 03:45:58;;;;;;;6.50;5.90;;;;;;;11.47;100.00;101706.84;10496151;28;20049;-79
2024/03/11 03:51:22;;;;;;;6.95;6.18;;;;;;;11.43;100.00;101710.25;10523284;28;20049;-79
2024/03/11 03:56:46;;;;;;;6.75;5.50;;;;;;;11.81;100.00;101715.72;10495425;28;20406;-79
2024/03/11 04:02:14;;;;;;;5.95;5.35;;;;;;;12.15;100.00;101728.03;10513816;28;20060;-79
2024/03/11 04:07:36;;;;;;;5.35;4.82;;;;;;;12.43;100.00;101721.66;10461331;28;20496;-79
2024/03/11 04:13:01;;;;;;;6.25;5.40;;;;;;;12.58;100.00;101722.91;10508155;28;20237;-80
2024/03/11 04:18:26;;;;;;;5.70;4.80;;;;;;;12.61;100.00;101720.31;10495449;28;20627;-79
2024/03/11 04:23:50;;;;;;;4.93;4.43;;;;;;;12.71;100.00;101702.88;10492945;28;20500;-79
2024/03/11 04:29:13;;;;;;;5.63;4.60;;;;;;;12.93;100.00;101698.94;10483680;28;20122;-79
2024/03/11 04:34:40;;;;;;;4.57;4.18;;;;;;;13.09;100.00;101707.22;10508059;28;20044;-79
2024/03/11 04:40:06;;;;;;;6.95;4.25;;;;;;;13.27;100.00;101708.47;10494817;28;20504;-80
2024/03/11 04:45:29;;;;;;;5.85;3.70;;;;;;;13.37;100.00;101702.53;10480997;28;20076;-79
2024/03/11 04:50:53;;;;;;;4.22;3.50;;;;;;;13.60;100.00;101698.53;10494148;28;20094;-80
2024/03/11 04:56:16;;;;;;;4.72;3.53;;;;;;;13.81;100.00;101705.97;10488288;28;20045;-79
2024/03/11 05:01:39;;;;;;;5.75;3.50;;;;;;;14.08;100.00;101705.56;10492868;28;20072;-80
2024/03/11 05:07:03;;;;;;;7.47;3.63;;;;;;;15.06;100.00;101706.13;10480207;28;20041;-79
2024/03/11 05:12:25;;;;;;;3.22;2.83;;;;;;;16.59;100.00;101710.28;10477471;28;20048;-80
2024/03/11 05:17:48;;;;;;;3.17;2.80;;;;;;;17.47;100.00;101708.00;10493028;28;20048;-80
2024/03/11 05:23:12;;;;;;;3.20;2.65;;;;;;;18.17;100.00;101708.13;10510475;28;20386;-80
2024/03/11 05:28:37;;;;;;;4.35;3.05;;;;;;;19.00;100.00;101717.78;10493131;28;20047;-80
2024/03/11 05:34:00;;;;;;;3.53;3.00;;;;;;;19.59;99.15;101711.28;10504527;28;20049;-80
2024/03/11 05:39:23;;;;;;;3.67;2.63;;;;;;;20.04;95.82;101714.53;10479234;28;20051;-80
2024/03/11 05:44:49;;;;;;;3.45;2.83;;;;;;;20.41;91.76;101713.38;10478223;28;20058;-81
2024/03/11 05:50:14;;;;;;;3.72;2.65;;;;;;;20.88;90.00;101699.41;10478950;28;20340;-80
2024/03/11 05:55:41;;;;;;;3.70;2.45;;;;;;;21.39;86.78;101703.28;10478336;28;20052;-80
2024/03/11 06:01:05;;;;;;;3.47;2.60;;;;;;;21.75;81.64;101706.31;10477874;28;20084;-81
2024/03/11 06:06:28;;;;;;;2.75;2.50;;;;;;;22.14;71.54;101720.97;10478088;28;20135;-81
2024/03/11 06:11:54;;;;;;;3.20;2.67;;;;;;;22.89;64.43;101726.81;10476600;28;20044;-80
2024/03/11 06:17:18;;;;;;;4.35;2.50;;;;;;;23.95;56.18;101725.41;10501073;28;20072;-80
2024/03/11 06:22:42;;;;;;;5.07;2.42;;;;;;;24.47;53.69;101728.59;10519727;28;20056;-80
2024/03/11 06:28:08;;;;;;;2.97;2.03;;;;;;;25.71;47.02;101729.53;10477075;28;20698;-81
2024/03/11 06:33:31;;;;;;;2.30;2.10;;;;;;;25.65;46.18;101728.84;10489399;28;20110;-81
2024/03/11 06:38:58;;;;;;;2.47;2.28;;;;;;;25.28;46.36;101729.91;10491628;28;20094;-81
2024/03/11 06:44:25;;;;;;;5.95;2.20;;;;;;;25.26;45.59;101723.69;10476765;28;20076;-80
2024/03/11 06:49:47;;;;;;;2.63;2.25;;;;;;;24.35;47.79;101731.59;10487516;28;20392;-81
2024/03/11 06:55:12;;;;;;;2.35;1.80;;;;;;;24.41;49.38;101725.16;10440775;28;20055;-80
2024/03/11 07:00:39;;;;;;;2.85;2.10;;;;;;;25.07;49.67;101737.78;10472704;28;20067;-81
2024/03/11 07:06:02;;;;;;;4.95;2.58;;;;;;;25.18;47.02;101725.72;10490984;28;20072;-81
2024/03/11 07:11:24;;;;;;;2.35;2.15;;;;;;;25.11;46.95;101729.53;10477292;28;20145;-80
2024/03/11 07:16:53;;;;;;;2.35;2.00;;;;;;;25.00;48.11;101742.47;10457441;28;20563;-80
2024/03/11 07:22:19;;;;;;;3.08;2.30;;;;;;;25.54;46.08;101760.69;10476373;28;20044;-81
2024/03/11 07:27:47;;;;;;;7.22;2.85;;;;;;;25.97;44.67;101755.75;10496724;28;20075;-81
2024/03/11 07:33:15;;;;;;;2.30;1.95;;;;;;;26.98;41.80;101768.63;10473283;28;20048;-81
2024/03/11 07:38:42;;;;;;;2.88;2.35;;;;;;;27.71;39.56;101764.91;10487618;28;20105;-81
2024/03/11 07:44:06;;;;;;;3.38;2.30;;;;;;;27.02;40.43;101767.56;10491276;28;20102;-82
2024/03/11 07:49:31;;;;;;;2.80;2.22;;;;;;;27.84;38.49;101767.13;10497897;28;20045;-89
2024/03/11 07:54:54;;;;;;;4.60;2.83;;;;;;;28.28;37.00;101763.53;10497051;28;20045;-88
2024/03/11 08:00:20;;;;;;;2.17;1.98;;;;;;;27.08;39.27;101746.53;10495782;28;20044;-82
2024/03/11 08:05:44;;;;;;;2.83;1.90;;;;;;;26.90;39.31;101755.34;10502094;28;20036;-82
2024/03/11 08:11:08;;;;;;;1.58;1.48;;;;;;;27.59;37.55;101762.66;10495599;28;20576;-80
2024/03/11 08:16:31;;;;;;;3.03;1.70;;;;;;;27.87;36.54;101750.72;10495852;28;20048;-81
2024/03/11 08:21:55;;;;;;;1.60;1.50;;;;;;;28.09;37.36;101746.19;10459991;28;20067;-81
2024/03/11 08:27:22;;;;;;;3.25;1.90;;;;;;;27.50;37.96;101749.44;10488719;28;20053;-81
2024/03/11 08:32:46;;;;;;;2.95;1.90;;;;;;;28.02;36.33;101739.25;10460428;28;20976;-82
2024/03/11 08:38:11;;;;;;;4.50;2.00;;;;;;;27.77;36.09;101732.06;10478186;28;20141;-81
2024/03/11 08:43:33;;;;;;;3.47;2.08;;;;;;;27.86;35.94;101729.94;10507407;28;20370;-80
2024/03/11 08:48:57;;;;;;;3.78;1.80;;;;;;;28.44;33.59;101723.84;10508754;28;20102;-80
2024/03/11 08:54:22;;;;;;;2.78;1.60;;;;;;;29.31;32.04;101730.84;10506721;28;20317;-80
2024/03/11 08:59:45;;;;;;;3.05;1.65;;;;;;;29.82;31.09;101727.47;10504298;28;20059;-80
2024/03/11 09:05:12;;;;;;;2.45;1.55;;;;;;;29.23;32.48;101728.47;10483823;28;20052;-81
2024/03/11 09:10:36;;;;;;;3.75;1.98;;;;;;;28.76;32.18;101733.34;10506015;28;20048;-82
2024/03/11 09:15:59;;;;;;;3.05;1.85;;;;;;;29.03;32.39;101731.22;10492067;28;20056;-80
2024/03/11 09:21:24;;;;;;;2.97;2.30;;;;;;;29.04;32.35;101743.88;10491464;28;20190;-80
2024/03/11 09:26:49;;;;;;;2.75;1.85;;;;;;;29.01;31.73;101745.88;10489717;28;20139;-78
2024/03/11 09:32:12;;;;;;;2.72;1.67;;;;;;;29.51;30.96;101754.41;10518099;27;20052;-79
2024/03/11 09:37:37;;;;;;;3.13;1.60;;;;;;;29.26;31.71;101749.22;10473060;28;20067;-80
2024/03/11 09:43:06;;;;;;;5.70;1.83;;;;;;;29.30;31.49;101731.78;10491306;28;20140;-79
2024/03/11 09:48:38;;;;;;;1.45;0.98;;;;;;;29.16;31.41;101731.53;10478387;28;20048;-80
2024/03/11 09:54:05;;;;;;;2.72;2.00;;;;;;;29.59;31.99;101715.00;10476854;28;20376;-80
2024/03/11 09:59:30;;;;;;;2.65;1.58;;;;;;;29.39;29.68;101714.19;10478039;28;20053;-80
2024/03/11 10:04:54;;;;;;;1.90;1.65;;;;;;;29.09;31.12;101698.28;10478011;28;20048;-80
2024/03/11 10:10:23;;;;;;;2.78;2.00;;;;;;;28.92;32.17;101692.75;10492318;28;20048;-80
2024/03/11 10:15:48;;;;;;;1.58;1.48;;;;;;;28.57;32.06;101675.28;10503501;28;20053;-79
2024/03/11 10:21:14;;;;;;;4.22;1.60;;;;;;;28.40;32.81;101667.00;10519988;28;20052;-78
2024/03/11 10:26:40;;;;;;;2.60;1.27;;;;;;;28.15;33.88;101661.78;10463679;28;20041;-80
2024/03/11 10:32:05;;;;;;;3.08;1.25;;;;;;;27.85;33.68;101654.88;10486094;28;20068;-79
2024/03/11 10:37:29;;;;;;;5.10;1.48;;;;;;;27.31;34.25;101635.31;10468490;28;20048;-78
2024/03/11 10:42:53;;;;;;;2.85;1.40;;;;;;;26.96;33.86;101625.00;10487601;28;20055;-77
2024/03/11 10:48:17;;;;;;;1.95;1.27;;;;;;;26.50;35.84;101648.38;10488967;28;20099;-77
2024/03/11 10:53:42;;;;;;;3.03;1.58;;;;;;;26.49;36.92;101643.00;10480107;28;20583;-78
2024/03/11 10:59:07;;;;;;;1.90;1.50;;;;;;;26.31;35.32;101632.81;10494598;28;20114;-77
2024/03/11 11:04:36;;;;;;;2.55;1.70;;;;;;;25.88;37.25;101627.97;10496681;28;20051;-78
2024/03/11 11:10:01;;;;;;;2.33;1.50;;;;;;;25.33;36.02;101632.47;10480107;28;20040;-78
2024/03/11 11:15:25;;;;;;;2.88;1.40;;;;;;;25.06;38.21;101631.50;10482808;28;20393;-77
2024/03/11 11:20:52;;;;;;;3.67;1.88;;;;;;;24.88;38.60;101630.19;10511602;28;20129;-78
2024/03/11 11:26:43;;;;;;;1.75;1.60;;;;;;;24.45;39.07;101610.75;10525388;28;20057;-78
2024/03/11 11:32:08;;;;;;;2.85;1.75;;;;;;;23.53;43.38;101612.25;10482457;28;20127;-79
2024/03/11 11:37:47;;;;;;;2.80;1.48;;;;;;;23.60;42.86;101605.78;10473506;28;20068;-78
2024/03/11 11:43:22;;;;;;;1.80;1.40;;;;;;;23.06;44.16;101586.38;10510150;28;20048;-77
2024/03/11 11:48:45;;;;;;;2.38;1.38;;;;;;;22.99;45.86;101595.50;10509978;28;20136;-77
2024/03/11 11:54:25;;;;;;;2.88;1.65;;;;;;;22.74;46.54;101594.28;10523741;28;20056;-78
2024/03/11 11:59:57;;;;;;;3.00;1.90;;;;;;;22.10;50.60;101588.34;10519765;28;20048;-79
2024/03/11 12:05:23;;;;;;;5.45;1.80;;;;;;;21.69;53.92;101577.41;10494934;28;20407;-80
2024/03/11 12:10:47;;;;;;;2.83;1.83;;;;;;;21.33;55.54;101560.09;10468793;28;20049;-76
2024/03/11 12:16:11;;;;;;;5.35;2.08;;;;;;;21.24;64.58;101574.56;10474423;28;20053;-80
2024/03/11 12:21:35;;;;;;;5.78;1.60;;;;;;;21.04;68.69;101558.72;10510716;28;20056;-79
2024/03/11 12:26:59;;;;;;;6.90;2.30;;;;;;;21.17;62.17;101543.31;10461543;28;20543;-80
2024/03/11 12:32:23;;;;;;;3.55;1.65;;;;;;;20.87;67.74;101541.06;10470446;28;20192;-76
2024/03/11 12:37:52;;;;;;;1.75;1.35;;;;;;;20.68;74.00;101541.31;10461252;28;20048;-76
2024/03/11 12:43:21;;;;;;;2.85;1.70;;;;;;;20.78;75.93;101520.59;10518098;28;20063;-76
2024/03/11 12:48:43;;;;;;;;;;;;;;;20.48;77.06;101534.44;10476212;28;20057;-78
2024/03/11 12:54:19;;;;;;;4.40;2.03;;;;;;;20.37;82.93;101547.97;10491382;28;19920;-78
2024/03/11 12:59:45;;;;;;;4.03;1.83;;;;;;;20.18;86.43;101532.97;10473510;28;20051;-77
2024/03/11 13:05:14;;;;;;;2.47;1.85;;;;;;;20.18;86.83;101504.38;10470991;28;20057;-76
2024/03/11 13:10:36;;;;;;;2.63;2.03;;;;;;;20.02;90.75;101496.53;10506849;28;20455;-77
2024/03/11 13:16:00;;;;;;;2.67;1.88;;;;;;;19.61;93.91;101527.34;10491481;28;20049;-78
2024/03/11 13:21:23;;;;;;;3.72;1.70;;;;;;;19.66;92.50;101513.88;10489127;28;20053;-77
2024/03/11 13:26:52;;;;;;;3.92;1.90;;;;;;;19.58;98.33;101526.44;10488242;28;20511;-79
2024/03/11 13:32:16;;;;;;;2.22;2.00;;;;;;;19.55;100.00;101522.03;10478374;28;20072;-77
2024/03/11 13:37:39;;;;;;;4.78;1.90;;;;;;;19.67;99.95;101504.94;10472296;28;20048;-77
2024/03/11 13:43:02;;;;;;;3.75;1.80;;;;;;;19.67;95.18;101524.59;10478604;28;20702;-78
2024/03/11 13:48:27;;;;;;;6.00;2.03;;;;;;;19.29;97.08;101516.88;10491601;28;20044;-77
2024/03/11 13:53:52;;;;;;;4.33;3.27;;;;;;;19.17;100.00;101521.41;10477904;28;20139;-78
2024/03/11 13:59:20;;;;;;;3.05;2.33;;;;;;;19.08;100.00;101483.13;10477769;28;20308;-78
2024/03/11 14:04:45;;;;;;;5.57;2.35;;;;;;;19.09;100.00;101500.97;10491441;28;20064;-77
2024/03/11 14:10:08;;;;;;;4.47;2.10;;;;;;;18.79;100.00;101501.16;10519813;28;20106;-77
2024/03/11 14:15:30;;;;;;;2.95;1.60;;;;;;;18.85;100.00;101490.41;10464480;28;20095;-78
2024/03/11 14:20:54;;;;;;;7.78;2.10;;;;;;;18.70;100.00;101471.78;10439409;28;20051;-77
2024/03/11 14:26:18;;;;;;;3.75;1.92;;;;;;;18.58;100.00;101503.94;10476796;28;20053;-77
2024/03/11 14:31:40;;;;;;;2.47;1.90;;;;;;;18.57;100.00;101496.84;10475291;28;20047;-78
2024/03/11 14:37:05;;;;;;;1.50;1.40;;;;;;;18.53;100.00;101519.97;10519190;28;20049;-78
2024/03/11 14:42:29;;;;;;;1.95;1.42;;;;;;;18.61;100.00;101538.72;10509994;28;20052;-77
2024/03/11 14:47:52;;;;;;;2.17;1.48;;;;;;;18.57;100.00;101536.97;10463205;28;20583;-77
2024/03/11 14:53:18;;;;;;;2.30;1.48;;;;;;;18.46;100.00;101550.31;10516445;28;20042;-77
2024/03/11 14:58:41;;;;;;;3.42;1.27;;;;;;;18.30;100.00;101548.63;10476230;28;20359;-78
2024/03/11 15:04:03;;;;;;;3.78;1.60;;;;;;;18.15;100.00;101556.66;10503773;28;20111;-77
2024/03/11 15:09:27;;;;;;;3.22;1.88;;;;;;;18.06;100.00;101551.34;10508339;28;20044;-78
2024/03/11 15:14:54;;;;;;;2.47;1.92;;;;;;;17.98;100.00;101539.81;10475137;28;20409;-76
2024/03/11 15:20:17;;;;;;;3.78;1.92;;;;;;;17.87;100.00;101537.13;10474124;28;20550;-79
2024/03/11 15:25:42;;;;;;;2.75;1.73;;;;;;;17.74;100.00;101552.28;10499805;28;20080;-78
2024/03/11 15:31:08;;;;;;;3.15;1.85;;;;;;;17.72;100.00;101527.34;10456169;28;20056;-82
2024/03/11 15:36:32;;;;;;;2.78;1.95;;;;;;;17.70;100.00;101525.59;10474884;28;20486;-80
2024/03/11 15:41:58;;;;;;;2.40;1.80;;;;;;;17.62;100.00;101520.25;10474497;28;20044;-79
2024/03/11 15:47:21;;;;;;;2.53;1.90;;;;;;;17.38;100.00;101542.50;10471914;28;20054;-80
2024/03/11 15:52:44;;;;;;;3.85;2.00;;;;;;;17.19;100.00;101514.03;10471459;28;20045;-79
2024/03/11 15:58:08;;;;;;;3.22;2.00;;;;;;;17.13;100.00;101514.03;10461877;28;20523;-79
2024/03/11 16:03:34;;;;;;;3.42;2.05;;;;;;;17.02;100.00;101521.09;10495797;28;20484;-77
2024/03/11 16:08:57;;;;;;;2.97;2.00;;;;;;;16.96;100.00;101507.75;10470431;28;20063;-79
2024/03/11 16:14:21;;;;;;;2.25;2.05;;;;;;;16.83;100.00;101528.19;10479659;28;20607;-81
2024/03/11 16:19:46;;;;;;;1.90;1.75;;;;;;;16.80;100.00;101537.97;10495002;28;20123;-84
2024/03/11 16:25:12;;;;;;;3.58;1.90;;;;;;;16.69;100.00;101536.16;10479066;28;20052;-84
2024/03/11 16:30:36;;;;;;;2.10;1.90;;;;;;;16.67;100.00;101542.38;10478732;28;20045;-79
2024/03/11 16:36:00;;;;;;;2.72;2.22;;;;;;;16.61;100.00;101547.66;10516058;28;20135;-77
2024/03/11 16:41:25;;;;;;;3.88;2.00;;;;;;;16.59;100.00;101542.31;10496088;28;20052;-80
2024/03/11 16:46:50;;;;;;;3.42;2.40;;;;;;;16.56;100.00;101536.97;10491053;28;20056;-84
2024/03/11 16:52:12;;;;;;;3.45;2.30;;;;;;;16.59;100.00;101518.31;10471801;28;20045;-82
2024/03/11 16:57:37;;;;;;;5.80;2.10;;;;;;;16.59;100.00;101509.44;10484851;28;20043;-80
2024/03/11 17:03:02;;;;;;;2.30;2.10;;;;;;;16.56;100.00;101520.06;10465918;28;20479;-82
2024/03/11 17:08:25;;;;;;;5.60;2.65;;;;;;;16.57;100.00;101540.53;10458270;28;20052;-86
2024/03/11 17:13:47;;;;;;;4.13;2.13;;;;;;;16.49;100.00;101551.16;10487253;28;20140;-83
2024/03/11 17:19:17;;;;;;;3.63;2.58;;;;;;;16.39;100.00;101538.69;10506698;28;20052;-82
2024/03/11 17:24:41;;;;;;;3.92;2.63;;;;;;;16.40;100.00;101531.56;10489472;28;20060;-80
2024/03/11 17:30:04;;;;;;;4.75;2.28;;;;;;;16.38;100.00;101538.66;10479226;28;20040;-81
2024/03/11 17:35:29;;;;;;;5.75;2.17;;;;;;;16.37;100.00;101540.44;10506672;28;20084;-80
2024/03/11 17:40:54;;;;;;;3.45;2.22;;;;;;;16.34;100.00;101497.81;10471893;28;20075;-82
2024/03/11 17:46:20;;;;;;;4.90;2.67;;;;;;;16.27;100.00;101523.53;10471874;28;20052;-78
2024/03/11 17:51:44;;;;;;;3.10;2.60;;;;;;;16.25;100.00;101530.63;10476321;28;20082;-79
2024/03/11 17:57:09;;;;;;;3.63;2.72;;;;;;;16.25;100.00;101511.97;10517590;28;20118;-80
2024/03/11 18:02:34;;;;;;;3.90;2.53;;;;;;;16.28;100.00;101527.06;10496412;28;20037;-78
2024/03/11 18:07:58;;;;;;;4.07;2.90;;;;;;;16.33;100.00;101517.34;10483552;28;20101;-78
2024/03/11 18:13:22;;;;;;;3.65;2.72;;;;;;;16.32;100.00;101536.88;10477013;28;20049;-83
2024/03/11 18:18:44;;;;;;;5.45;3.15;;;;;;;16.30;100.00;101517.31;10495247;28;20056;-83
2024/03/11 18:24:11;;;;;;;4.32;2.63;;;;;;;16.26;100.00;101503.09;10480916;28;20045;-78
2024/03/11 18:29:35;;;;;;;4.88;3.60;;;;;;;16.23;100.00;101528.81;10505570;28;20055;-79
2024/03/11 18:34:57;;;;;;;3.72;2.60;;;;;;;16.24;100.00;101519.94;10489709;28;20053;-84
2024/03/11 18:40:23;;;;;;;3.65;2.72;;;;;;;16.27;100.00;101533.31;10468534;28;20060;-82
2024/03/11 18:45:46;;;;;;;6.47;2.67;;;;;;;16.23;100.00;101520.81;10494903;28;20086;-82
2024/03/11 18:51:08;;;;;;;3.60;2.90;;;;;;;16.26;100.00;101536.84;10470694;28;20076;-82
2024/03/11 18:56:32;;;;;;;3.58;3.10;;;;;;;16.21;100.00;101547.47;10457095;28;20053;-82
2024/03/11 19:01:55;;;;;;;7.20;3.22;;;;;;;16.19;100.00;101551.91;10480001;28;20509;-79
2024/03/11 19:07:17;;;;;;;4.97;3.33;;;;;;;16.29;100.00;101547.50;10506323;28;20049;-78
2024/03/11 19:12:42;;;;;;;4.93;3.30;;;;;;;16.26;100.00;101558.16;10509437;28;20508;-80
2024/03/11 19:18:05;;;;;;;3.60;2.60;;;;;;;16.25;100.00;101543.94;10465927;28;20044;-80
2024/03/11 19:23:27;;;;;;;4.30;2.80;;;;;;;16.26;100.00;101542.19;10481930;28;20037;-79
2024/03/11 19:28:51;;;;;;;5.90;2.78;;;;;;;16.19;100.00;101549.25;10491150;28;20041;-81
2024/03/11 19:34:15;;;;;;;4.72;3.22;;;;;;;16.21;100.00;101543.94;10525989;28;20084;-80
2024/03/11 19:39:52;;;;;;;5.78;3.15;;;;;;;16.16;100.00;101533.22;10489781;28;20072;-79
2024/03/11 19:45:53;;;;;;;3.92;2.78;;;;;;;16.19;100.00;101532.38;10490477;28;20045;-81
2024/03/11 19:52:05;;;;;;;3.65;3.20;;;;;;;16.10;100.00;101514.56;10496080;28;20492;-78
2024/03/11 19:57:53;;;;;;;4.57;2.72;;;;;;;16.03;100.00;101514.50;10454959;28;20049;-81
2024/03/11 20:03:42;;;;;;;3.72;3.10;;;;;;;15.99;100.00;101499.41;10459223;28;20493;-83
2024/03/11 20:09:54;;;;;;;9.00;3.67;;;;;;;15.99;100.00;101507.41;10451443;28;20536;-82
2024/03/11 20:15:38;;;;;;;4.75;3.05;;;;;;;15.97;100.00;101512.72;10356777;28;20107;-78
2024/03/11 20:21:24;;;;;;;4.10;2.78;;;;;;;15.97;100.00;101493.16;10462990;28;20044;-78
2024/03/11 20:26:56;;;;;;;3.80;2.70;;;;;;;15.97;100.00;101472.75;10491446;28;20072;-78
2024/03/11 20:32:31;;;;;;;6.28;3.00;;;;;;;15.82;100.00;101492.19;10480733;28;20652;-78
2024/03/11 20:37:54;;;;;;;4.13;2.80;;;;;;;15.88;100.00;101468.25;10494918;28;20056;-79
2024/03/11 20:43:18;;;;;;;5.10;3.00;;;;;;;15.83;100.00;101483.34;10506944;28;20481;-78
2024/03/11 20:48:41;;;;;;;3.90;2.75;;;;;;;15.86;100.00;101486.03;10487567;28;20049;-79
2024/03/11 20:54:05;;;;;;;6.90;3.00;;;;;;;15.85;100.00;101456.72;10460074;28;20048;-78
2024/03/11 20:59:30;;;;;;;5.43;3.25;;;;;;;15.91;100.00;101457.66;10465096;28;20063;-78
2024/03/11 21:04:55;;;;;;;4.82;2.95;;;;;;;15.78;100.00;101474.44;10465155;28;20086;-78
2024/03/11 21:10:19;;;;;;;4.00;3.00;;;;;;;15.77;100.00;101472.66;10487886;28;20374;-78
2024/03/11 21:15:43;;;;;;;5.25;3.30;;;;;;;15.80;100.00;101464.69;10507239;28;20059;-78
2024/03/11 21:21:19;;;;;;;6.82;3.50;;;;;;;15.83;100.00;101446.06;10491343;28;20056;-78
2024/03/11 21:27:02;;;;;;;3.67;3.20;;;;;;;15.85;100.00;101427.44;10503636;28;20052;-78
2024/03/11 21:32:26;;;;;;;6.68;3.88;;;;;;;15.79;100.00;101414.09;10478694;28;20153;-78
2024/03/11 21:37:49;;;;;;;8.35;4.13;;;;;;;15.75;100.00;101426.47;10479015;28;20048;-78
2024/03/11 21:43:11;;;;;;;7.20;3.30;;;;;;;15.78;100.00;101410.53;10468522;28;20059;-79
2024/03/11 21:48:36;;;;;;;5.60;3.83;;;;;;;15.76;100.00;101408.75;10478440;28;20408;-78
2024/03/11 21:53:58;;;;;;;7.10;4.10;;;;;;;15.76;100.00;101398.09;10506347;28;20048;-78
2024/03/11 21:59:21;;;;;;;6.10;3.75;;;;;;;15.76;100.00;101409.63;10479129;28;20076;-78
2024/03/11 22:04:45;;;;;;;6.53;3.88;;;;;;;15.77;100.00;101414.09;10474211;28;20056;-78
2024/03/11 22:10:09;;;;;;;4.55;3.40;;;;;;;15.72;100.00;101415.84;10478058;28;20048;-78
2024/03/11 22:15:31;;;;;;;7.88;4.30;;;;;;;15.73;100.00;101416.72;10489406;28;20067;-78
2024/03/11 22:20:55;;;;;;;9.60;4.28;;;;;;;15.79;100.00;101422.97;10477399;28;20128;-79
2024/03/11 22:26:18;;;;;;;10.05;4.35;;;;;;;15.80;100.00;101406.13;10504362;28;20040;-78
2024/03/11 22:31:41;;;;;;;8.50;3.95;;;;;;;15.83;100.00;101411.44;10490839;28;20048;-78
2024/03/11 22:37:05;;;;;;;7.93;3.80;;;;;;;15.73;100.00;101404.31;10476722;28;20052;-79
2024/03/11 22:42:29;;;;;;;6.80;3.83;;;;;;;15.80;100.00;101421.22;10499643;28;20063;-79
2024/03/11 22:47:51;;;;;;;9.00;4.45;;;;;;;15.83;100.00;101392.81;10489371;28;20053;-78
2024/03/11 22:53:15;;;;;;;7.57;4.18;;;;;;;15.82;100.00;101417.66;10477395;28;20098;-78
2024/03/11 22:58:38;;;;;;;6.80;3.92;;;;;;;15.86;100.00;101398.16;10512688;28;20054;-78
2024/03/11 23:04:02;;;;;;;8.23;3.80;;;;;;;16.03;100.00;101397.31;10511114;28;20064;-78
2024/03/11 23:09:28;;;;;;;10.20;3.92;;;;;;;15.99;100.00;101391.09;10515127;28;20059;-78
2024/03/11 23:14:50;;;;;;;11.60;4.25;;;;;;;15.92;100.00;101402.63;10484376;28;20048;-78
2024/03/11 23:20:14;;;;;;;9.30;4.35;;;;;;;15.90;100.00;101380.41;10497613;28;20121;-78
2024/03/11 23:25:40;;;;;;;12.50;4.00;;;;;;;15.90;100.00;101375.97;10483077;28;20044;-78
2024/03/11 23:31:03;;;;;;;5.20;3.90;;;;;;;15.95;100.00;101389.28;10482978;28;20602;-79
2024/03/11 23:36:25;;;;;;;8.15;4.20;;;;;;;15.85;100.00;101369.75;10524923;28;20045;-78
2024/03/11 23:41:52;;;;;;;9.05;4.22;;;;;;;15.83;100.00;101360.84;10479730;28;20040;-79
2024/03/11 23:47:15;;;;;;;7.60;3.55;;;;;;;15.93;100.00;101368.00;10496499;28;20083;-78
2024/03/11 23:52:38;;;;;;;6.85;3.60;;;;;;;15.90;100.00;101367.97;10524540;28;20055;-78
2024/03/11 23:58:03;;;;;;;7.35;4.40;;;;;;;15.96;100.00;101329.81;10495545;28;20401;-79
